sensor_id;sensor_type;location;lat;lon;timestamp;P1;durP1;ratioP1;P2;durP2;ratioP2
19897;SDS011;10111;50.814;4.572;2023-02-05T00:01:12;26.40;;;15.33;;
19897;SDS011;10111;50.814;4.572;2023-02-05T00:03:38;22.17;;;14.37;;
19897;SDS011;10111;50.814;4.572;2023-02-05T00:06:04;22.87;;;13.77;;
19897;SDS011;10111;50.814;4.572;2023-02-05T00:08:30;31.63;;;16.13;;
19897;SDS011;10111;50.814;4.572;2023-02-05T00:10:55;27.37;;;14.67;;
19897;SDS011;10111;50.814;4.572;2023-02-05T00:13:21;23.83;;;14.37;;
19897;SDS011;10111;50.814;4.572;2023-02-05T00:15:47;23.97;;;15.10;;
19897;SDS011;10111;50.814;4.572;2023-02-05T00:18:13;26.80;;;16.73;;
19897;SDS011;10111;50.814;4.572;2023-02-05T00:20:39;23.10;;;15.53;;
19897;SDS011;10111;50.814;4.572;2023-02-05T00:23:05;25.27;;;14.97;;
19897;SDS011;10111;50.814;4.572;2023-02-05T00:25:30;29.60;;;14.90;;
19897;SDS011;10111;50.814;4.572;2023-02-05T00:27:56;21.97;;;13.80;;
19897;SDS011;10111;50.814;4.572;2023-02-05T00:30:21;23.63;;;14.13;;
19897;SDS011;10111;50.814;4.572;2023-02-05T00:32:47;23.93;;;14.53;;
19897;SDS011;10111;50.814;4.572;2023-02-05T00:35:13;23.50;;;14.23;;
19897;SDS011;10111;50.814;4.572;2023-02-05T00:37:38;23.77;;;14.43;;
19897;SDS011;10111;50.814;4.572;2023-02-05T00:40:04;24.17;;;15.07;;
19897;SDS011;10111;50.814;4.572;2023-02-05T00:42:30;26.53;;;15.97;;
19897;SDS011;10111;50.814;4.572;2023-02-05T00:44:56;30.43;;;15.70;;
19897;SDS011;10111;50.814;4.572;2023-02-05T00:47:21;26.73;;;17.03;;
19897;SDS011;10111;50.814;4.572;2023-02-05T00:49:47;27.43;;;15.03;;
19897;SDS011;10111;50.814;4.572;2023-02-05T00:52:12;26.50;;;15.07;;
19897;SDS011;10111;50.814;4.572;2023-02-05T00:54:38;24.97;;;14.77;;
19897;SDS011;10111;50.814;4.572;2023-02-05T00:57:04;27.17;;;15.73;;
19897;SDS011;10111;50.814;4.572;2023-02-05T00:59:29;26.63;;;15.53;;
19897;SDS011;10111;50.814;4.572;2023-02-05T01:01:55;26.50;;;15.53;;
19897;SDS011;10111;50.814;4.572;2023-02-05T01:04:21;27.00;;;15.03;;
19897;SDS011;10111;50.814;4.572;2023-02-05T01:06:46;27.03;;;15.67;;
19897;SDS011;10111;50.814;4.572;2023-02-05T01:09:12;24.03;;;15.23;;
19897;SDS011;10111;50.814;4.572;2023-02-05T01:11:38;24.53;;;15.20;;
19897;SDS011;10111;50.814;4.572;2023-02-05T01:14:03;25.10;;;16.20;;
19897;SDS011;10111;50.814;4.572;2023-02-05T01:16:29;25.60;;;15.47;;
19897;SDS011;10111;50.814;4.572;2023-02-05T01:18:54;27.63;;;17.03;;
19897;SDS011;10111;50.814;4.572;2023-02-05T01:21:21;26.87;;;17.63;;
19897;SDS011;10111;50.814;4.572;2023-02-05T01:23:49;26.10;;;15.90;;
19897;SDS011;10111;50.814;4.572;2023-02-05T01:26:18;29.07;;;16.33;;
19897;SDS011;10111;50.814;4.572;2023-02-05T01:28:44;27.93;;;16.10;;
19897;SDS011;10111;50.814;4.572;2023-02-05T01:31:11;24.07;;;14.87;;
19897;SDS011;10111;50.814;4.572;2023-02-05T01:33:36;29.80;;;15.23;;
19897;SDS011;10111;50.814;4.572;2023-02-05T01:36:02;25.10;;;15.10;;
19897;SDS011;10111;50.814;4.572;2023-02-05T01:38:28;25.57;;;15.00;;
19897;SDS011;10111;50.814;4.572;2023-02-05T01:40:53;25.00;;;15.13;;
19897;SDS011;10111;50.814;4.572;2023-02-05T01:43:19;26.70;;;16.43;;
19897;SDS011;10111;50.814;4.572;2023-02-05T01:45:59;30.00;;;15.93;;
19897;SDS011;10111;50.814;4.572;2023-02-05T01:48:34;25.83;;;13.50;;
19897;SDS011;10111;50.814;4.572;2023-02-05T01:51:06;22.60;;;12.90;;
19897;SDS011;10111;50.814;4.572;2023-02-05T01:53:35;26.40;;;16.07;;
19897;SDS011;10111;50.814;4.572;2023-02-05T01:56:03;26.40;;;15.70;;
19897;SDS011;10111;50.814;4.572;2023-02-05T01:58:35;21.23;;;13.13;;
19897;SDS011;10111;50.814;4.572;2023-02-05T02:01:13;24.20;;;13.90;;
19897;SDS011;10111;50.814;4.572;2023-02-05T02:03:39;24.13;;;14.60;;
19897;SDS011;10111;50.814;4.572;2023-02-05T02:06:05;23.83;;;14.67;;
19897;SDS011;10111;50.814;4.572;2023-02-05T02:08:31;25.60;;;13.47;;
19897;SDS011;10111;50.814;4.572;2023-02-05T02:10:57;23.80;;;14.63;;
19897;SDS011;10111;50.814;4.572;2023-02-05T02:13:26;23.70;;;13.07;;
19897;SDS011;10111;50.814;4.572;2023-02-05T02:15:54;23.03;;;13.43;;
19897;SDS011;10111;50.814;4.572;2023-02-05T02:18:20;21.73;;;12.87;;
19897;SDS011;10111;50.814;4.572;2023-02-05T02:29:36;25.27;;;13.10;;
19897;SDS011;10111;50.814;4.572;2023-02-05T02:32:20;21.57;;;11.50;;
19897;SDS011;10111;50.814;4.572;2023-02-05T02:35:06;20.90;;;11.67;;
19897;SDS011;10111;50.814;4.572;2023-02-05T02:37:34;22.40;;;13.00;;
19897;SDS011;10111;50.814;4.572;2023-02-05T02:40:09;23.67;;;13.47;;
19897;SDS011;10111;50.814;4.572;2023-02-05T02:42:44;17.73;;;11.37;;
19897;SDS011;10111;50.814;4.572;2023-02-05T02:45:15;15.77;;;10.97;;
19897;SDS011;10111;50.814;4.572;2023-02-05T02:47:49;15.00;;;10.00;;
19897;SDS011;10111;50.814;4.572;2023-02-05T02:52:49;15.57;;;8.87;;
19897;SDS011;10111;50.814;4.572;2023-02-05T02:55:16;15.97;;;8.70;;
19897;SDS011;10111;50.814;4.572;2023-02-05T02:57:45;15.10;;;8.20;;
19897;SDS011;10111;50.814;4.572;2023-02-05T03:00:21;10.67;;;8.00;;
19897;SDS011;10111;50.814;4.572;2023-02-05T03:02:49;13.23;;;7.93;;
19897;SDS011;10111;50.814;4.572;2023-02-05T03:05:19;17.00;;;7.93;;
19897;SDS011;10111;50.814;4.572;2023-02-05T03:07:51;11.90;;;8.20;;
19897;SDS011;10111;50.814;4.572;2023-02-05T03:13:25;11.90;;;6.70;;
19897;SDS011;10111;50.814;4.572;2023-02-05T03:15:51;10.20;;;7.00;;
19897;SDS011;10111;50.814;4.572;2023-02-05T03:18:17;9.30;;;6.40;;
19897;SDS011;10111;50.814;4.572;2023-02-05T03:20:45;11.60;;;6.50;;
19897;SDS011;10111;50.814;4.572;2023-02-05T03:23:16;9.53;;;6.47;;
19897;SDS011;10111;50.814;4.572;2023-02-05T03:25:42;7.57;;;4.87;;
19897;SDS011;10111;50.814;4.572;2023-02-05T03:28:07;8.33;;;5.70;;
19897;SDS011;10111;50.814;4.572;2023-02-05T03:30:53;6.47;;;4.73;;
19897;SDS011;10111;50.814;4.572;2023-02-05T03:44:43;6.40;;;4.20;;
19897;SDS011;10111;50.814;4.572;2023-02-05T03:52:30;5.17;;;4.53;;
19897;SDS011;10111;50.814;4.572;2023-02-05T03:59:59;7.77;;;4.37;;
19897;SDS011;10111;50.814;4.572;2023-02-05T04:02:25;5.37;;;4.07;;
19897;SDS011;10111;50.814;4.572;2023-02-05T04:04:52;5.73;;;4.70;;
19897;SDS011;10111;50.814;4.572;2023-02-05T04:07:18;4.10;;;3.27;;
19897;SDS011;10111;50.814;4.572;2023-02-05T04:09:43;5.53;;;3.63;;
19897;SDS011;10111;50.814;4.572;2023-02-05T04:12:09;4.43;;;3.53;;
19897;SDS011;10111;50.814;4.572;2023-02-05T04:14:35;5.07;;;3.70;;
19897;SDS011;10111;50.814;4.572;2023-02-05T04:17:01;5.37;;;4.43;;
19897;SDS011;10111;50.814;4.572;2023-02-05T04:19:27;7.10;;;4.07;;
19897;SDS011;10111;50.814;4.572;2023-02-05T04:21:52;4.43;;;3.40;;
19897;SDS011;10111;50.814;4.572;2023-02-05T04:24:18;3.90;;;3.13;;
19897;SDS011;10111;50.814;4.572;2023-02-05T04:26:44;3.93;;;3.47;;
19897;SDS011;10111;50.814;4.572;2023-02-05T04:29:09;4.87;;;3.20;;
19897;SDS011;10111;50.814;4.572;2023-02-05T04:31:35;4.47;;;3.33;;
19897;SDS011;10111;50.814;4.572;2023-02-05T04:34:01;5.90;;;3.73;;
19897;SDS011;10111;50.814;4.572;2023-02-05T04:36:27;5.13;;;3.73;;
19897;SDS011;10111;50.814;4.572;2023-02-05T04:38:52;5.93;;;4.00;;
19897;SDS011;10111;50.814;4.572;2023-02-05T04:41:18;8.13;;;3.97;;
19897;SDS011;10111;50.814;4.572;2023-02-05T04:43:43;6.87;;;4.40;;
19897;SDS011;10111;50.814;4.572;2023-02-05T04:46:10;3.93;;;3.23;;
19897;SDS011;10111;50.814;4.572;2023-02-05T04:48:36;4.10;;;3.53;;
19897;SDS011;10111;50.814;4.572;2023-02-05T04:51:06;6.50;;;4.23;;
19897;SDS011;10111;50.814;4.572;2023-02-05T04:53:33;6.33;;;3.90;;
19897;SDS011;10111;50.814;4.572;2023-02-05T04:58:32;4.80;;;3.93;;
19897;SDS011;10111;50.814;4.572;2023-02-05T05:00:57;6.43;;;3.83;;
19897;SDS011;10111;50.814;4.572;2023-02-05T05:03:23;7.80;;;3.67;;
19897;SDS011;10111;50.814;4.572;2023-02-05T05:05:49;5.27;;;3.90;;
19897;SDS011;10111;50.814;4.572;2023-02-05T05:08:14;6.20;;;3.83;;
19897;SDS011;10111;50.814;4.572;2023-02-05T05:10:40;7.63;;;4.73;;
19897;SDS011;10111;50.814;4.572;2023-02-05T05:13:06;7.70;;;4.93;;
19897;SDS011;10111;50.814;4.572;2023-02-05T05:15:31;9.30;;;4.80;;
19897;SDS011;10111;50.814;4.572;2023-02-05T05:17:57;6.07;;;4.63;;
19897;SDS011;10111;50.814;4.572;2023-02-05T05:20:22;11.67;;;5.33;;
19897;SDS011;10111;50.814;4.572;2023-02-05T05:22:48;11.03;;;5.27;;
19897;SDS011;10111;50.814;4.572;2023-02-05T05:25:14;13.13;;;5.97;;
19897;SDS011;10111;50.814;4.572;2023-02-05T05:27:39;8.63;;;6.10;;
19897;SDS011;10111;50.814;4.572;2023-02-05T05:30:05;9.67;;;5.33;;
19897;SDS011;10111;50.814;4.572;2023-02-05T05:32:31;10.37;;;6.77;;
19897;SDS011;10111;50.814;4.572;2023-02-05T05:34:57;10.17;;;7.00;;
19897;SDS011;10111;50.814;4.572;2023-02-05T05:37:22;9.43;;;6.67;;
19897;SDS011;10111;50.814;4.572;2023-02-05T05:39:48;12.13;;;7.03;;
19897;SDS011;10111;50.814;4.572;2023-02-05T05:42:32;9.73;;;7.23;;
19897;SDS011;10111;50.814;4.572;2023-02-05T05:45:16;11.17;;;7.73;;
19897;SDS011;10111;50.814;4.572;2023-02-05T05:47:42;12.33;;;7.13;;
19897;SDS011;10111;50.814;4.572;2023-02-05T05:50:07;9.60;;;7.60;;
19897;SDS011;10111;50.814;4.572;2023-02-05T05:52:33;12.53;;;7.93;;
19897;SDS011;10111;50.814;4.572;2023-02-05T05:54:59;12.17;;;8.77;;
19897;SDS011;10111;50.814;4.572;2023-02-05T05:57:25;12.73;;;8.67;;
19897;SDS011;10111;50.814;4.572;2023-02-05T05:59:50;13.60;;;9.40;;
19897;SDS011;10111;50.814;4.572;2023-02-05T06:02:16;14.40;;;9.97;;
19897;SDS011;10111;50.814;4.572;2023-02-05T06:04:42;14.37;;;8.70;;
19897;SDS011;10111;50.814;4.572;2023-02-05T06:07:07;12.90;;;8.57;;
19897;SDS011;10111;50.814;4.572;2023-02-05T06:09:33;13.53;;;8.17;;
19897;SDS011;10111;50.814;4.572;2023-02-05T06:11:58;19.10;;;9.87;;
19897;SDS011;10111;50.814;4.572;2023-02-05T06:14:24;10.93;;;8.87;;
19897;SDS011;10111;50.814;4.572;2023-02-05T06:16:50;13.10;;;9.67;;
19897;SDS011;10111;50.814;4.572;2023-02-05T06:19:16;17.50;;;8.90;;
19897;SDS011;10111;50.814;4.572;2023-02-05T06:21:42;16.20;;;10.33;;
19897;SDS011;10111;50.814;4.572;2023-02-05T06:24:08;17.63;;;10.77;;
19897;SDS011;10111;50.814;4.572;2023-02-05T06:26:33;14.37;;;11.53;;
19897;SDS011;10111;50.814;4.572;2023-02-05T06:28:59;16.30;;;11.57;;
19897;SDS011;10111;50.814;4.572;2023-02-05T06:31:27;16.23;;;11.60;;
19897;SDS011;10111;50.814;4.572;2023-02-05T06:33:54;19.53;;;12.13;;
19897;SDS011;10111;50.814;4.572;2023-02-05T06:36:19;19.37;;;13.73;;
19897;SDS011;10111;50.814;4.572;2023-02-05T06:38:45;16.93;;;12.20;;
19897;SDS011;10111;50.814;4.572;2023-02-05T06:41:11;19.67;;;11.40;;
19897;SDS011;10111;50.814;4.572;2023-02-05T06:43:36;22.43;;;12.87;;
19897;SDS011;10111;50.814;4.572;2023-02-05T06:46:02;15.73;;;11.30;;
19897;SDS011;10111;50.814;4.572;2023-02-05T06:48:28;19.33;;;14.97;;
19897;SDS011;10111;50.814;4.572;2023-02-05T06:50:53;15.77;;;11.97;;
19897;SDS011;10111;50.814;4.572;2023-02-05T06:53:19;15.13;;;10.07;;
19897;SDS011;10111;50.814;4.572;2023-02-05T06:55:45;13.97;;;9.33;;
19897;SDS011;10111;50.814;4.572;2023-02-05T06:58:10;12.07;;;8.90;;
19897;SDS011;10111;50.814;4.572;2023-02-05T07:00:36;10.57;;;7.87;;
19897;SDS011;10111;50.814;4.572;2023-02-05T07:03:02;10.07;;;6.20;;
19897;SDS011;10111;50.814;4.572;2023-02-05T07:05:28;9.37;;;6.10;;
19897;SDS011;10111;50.814;4.572;2023-02-05T07:07:53;10.70;;;5.43;;
19897;SDS011;10111;50.814;4.572;2023-02-05T07:10:19;6.83;;;4.73;;
19897;SDS011;10111;50.814;4.572;2023-02-05T07:12:45;7.97;;;5.03;;
19897;SDS011;10111;50.814;4.572;2023-02-05T07:15:10;7.10;;;4.30;;
19897;SDS011;10111;50.814;4.572;2023-02-05T07:17:36;5.50;;;3.37;;
19897;SDS011;10111;50.814;4.572;2023-02-05T07:20:03;4.97;;;3.63;;
19897;SDS011;10111;50.814;4.572;2023-02-05T07:22:29;5.70;;;3.20;;
19897;SDS011;10111;50.814;4.572;2023-02-05T07:24:55;6.90;;;2.80;;
19897;SDS011;10111;50.814;4.572;2023-02-05T07:27:21;7.10;;;2.93;;
19897;SDS011;10111;50.814;4.572;2023-02-05T07:29:47;7.67;;;3.13;;
19897;SDS011;10111;50.814;4.572;2023-02-05T07:32:13;3.57;;;3.07;;
19897;SDS011;10111;50.814;4.572;2023-02-05T07:34:39;4.17;;;2.30;;
19897;SDS011;10111;50.814;4.572;2023-02-05T07:37:04;4.30;;;2.57;;
19897;SDS011;10111;50.814;4.572;2023-02-05T07:39:30;3.60;;;2.40;;
19897;SDS011;10111;50.814;4.572;2023-02-05T07:41:57;6.37;;;3.37;;
19897;SDS011;10111;50.814;4.572;2023-02-05T07:44:23;3.40;;;1.60;;
19897;SDS011;10111;50.814;4.572;2023-02-05T07:46:49;4.83;;;2.00;;
19897;SDS011;10111;50.814;4.572;2023-02-05T07:49:15;3.97;;;1.60;;
19897;SDS011;10111;50.814;4.572;2023-02-05T07:51:41;4.93;;;1.40;;
19897;SDS011;10111;50.814;4.572;2023-02-05T07:54:07;2.10;;;1.27;;
19897;SDS011;10111;50.814;4.572;2023-02-05T07:56:33;3.03;;;1.17;;
19897;SDS011;10111;50.814;4.572;2023-02-05T07:58:59;0.97;;;0.87;;
19897;SDS011;10111;50.814;4.572;2023-02-05T08:01:25;3.97;;;1.70;;
19897;SDS011;10111;50.814;4.572;2023-02-05T08:03:50;3.33;;;1.67;;
19897;SDS011;10111;50.814;4.572;2023-02-05T08:06:16;3.17;;;1.50;;
19897;SDS011;10111;50.814;4.572;2023-02-05T08:08:42;4.50;;;1.07;;
19897;SDS011;10111;50.814;4.572;2023-02-05T08:11:09;2.90;;;1.57;;
19897;SDS011;10111;50.814;4.572;2023-02-05T08:13:38;6.43;;;1.40;;
19897;SDS011;10111;50.814;4.572;2023-02-05T08:16:04;4.30;;;2.17;;
19897;SDS011;10111;50.814;4.572;2023-02-05T08:18:31;5.43;;;3.43;;
19897;SDS011;10111;50.814;4.572;2023-02-05T08:20:56;11.50;;;7.33;;
19897;SDS011;10111;50.814;4.572;2023-02-05T08:23:22;1.93;;;1.50;;
19897;SDS011;10111;50.814;4.572;2023-02-05T08:25:51;4.90;;;3.20;;
19897;SDS011;10111;50.814;4.572;2023-02-05T08:28:21;3.60;;;1.53;;
19897;SDS011;10111;50.814;4.572;2023-02-05T08:30:48;6.20;;;2.20;;
19897;SDS011;10111;50.814;4.572;2023-02-05T08:33:13;7.17;;;2.23;;
19897;SDS011;10111;50.814;4.572;2023-02-05T08:35:39;5.53;;;1.20;;
19897;SDS011;10111;50.814;4.572;2023-02-05T08:38:05;6.00;;;2.47;;
19897;SDS011;10111;50.814;4.572;2023-02-05T08:40:30;9.70;;;3.83;;
19897;SDS011;10111;50.814;4.572;2023-02-05T08:42:56;6.57;;;2.80;;
19897;SDS011;10111;50.814;4.572;2023-02-05T08:45:24;10.97;;;3.00;;
19897;SDS011;10111;50.814;4.572;2023-02-05T08:47:53;11.20;;;3.47;;
19897;SDS011;10111;50.814;4.572;2023-02-05T08:50:20;8.17;;;2.93;;
19897;SDS011;10111;50.814;4.572;2023-02-05T08:52:46;2.20;;;1.63;;
19897;SDS011;10111;50.814;4.572;2023-02-05T08:55:12;3.90;;;2.13;;
19897;SDS011;10111;50.814;4.572;2023-02-05T08:57:38;4.43;;;1.60;;
19897;SDS011;10111;50.814;4.572;2023-02-05T09:00:05;5.57;;;2.73;;
19897;SDS011;10111;50.814;4.572;2023-02-05T09:02:31;9.30;;;2.37;;
19897;SDS011;10111;50.814;4.572;2023-02-05T09:04:56;9.60;;;5.40;;
19897;SDS011;10111;50.814;4.572;2023-02-05T09:07:22;8.27;;;3.30;;
19897;SDS011;10111;50.814;4.572;2023-02-05T09:09:48;5.63;;;2.47;;
19897;SDS011;10111;50.814;4.572;2023-02-05T09:12:14;6.57;;;2.73;;
19897;SDS011;10111;50.814;4.572;2023-02-05T09:14:40;5.77;;;2.30;;
19897;SDS011;10111;50.814;4.572;2023-02-05T09:17:06;6.73;;;1.90;;
19897;SDS011;10111;50.814;4.572;2023-02-05T09:19:37;12.53;;;4.20;;
19897;SDS011;10111;50.814;4.572;2023-02-05T09:22:03;7.27;;;2.33;;
19897;SDS011;10111;50.814;4.572;2023-02-05T09:24:30;6.00;;;1.63;;
19897;SDS011;10111;50.814;4.572;2023-02-05T09:26:56;9.40;;;2.40;;
19897;SDS011;10111;50.814;4.572;2023-02-05T09:29:21;7.13;;;3.10;;
19897;SDS011;10111;50.814;4.572;2023-02-05T09:31:47;10.23;;;2.17;;
19897;SDS011;10111;50.814;4.572;2023-02-05T09:34:13;6.13;;;2.33;;
19897;SDS011;10111;50.814;4.572;2023-02-05T09:36:39;6.70;;;1.60;;
19897;SDS011;10111;50.814;4.572;2023-02-05T09:39:06;4.93;;;2.13;;
19897;SDS011;10111;50.814;4.572;2023-02-05T09:41:35;3.70;;;2.03;;
19897;SDS011;10111;50.814;4.572;2023-02-05T09:49:37;17.73;;;10.60;;
19897;SDS011;10111;50.814;4.572;2023-02-05T09:52:17;7.67;;;4.07;;
19897;SDS011;10111;50.814;4.572;2023-02-05T09:54:47;11.13;;;3.40;;
19897;SDS011;10111;50.814;4.572;2023-02-05T09:57:29;11.40;;;3.03;;
19897;SDS011;10111;50.814;4.572;2023-02-05T09:59:55;8.83;;;2.37;;
19897;SDS011;10111;50.814;4.572;2023-02-05T10:02:25;4.77;;;2.90;;
19897;SDS011;10111;50.814;4.572;2023-02-05T10:05:06;6.70;;;3.47;;
19897;SDS011;10111;50.814;4.572;2023-02-05T10:07:45;4.60;;;2.60;;
19897;SDS011;10111;50.814;4.572;2023-02-05T10:10:44;12.80;;;7.43;;
19897;SDS011;10111;50.814;4.572;2023-02-05T10:24:28;7.20;;;2.60;;
19897;SDS011;10111;50.814;4.572;2023-02-05T10:37:52;6.37;;;2.43;;
19897;SDS011;10111;50.814;4.572;2023-02-05T10:40:24;12.63;;;3.53;;
19897;SDS011;10111;50.814;4.572;2023-02-05T10:43:15;9.90;;;4.00;;
19897;SDS011;10111;50.814;4.572;2023-02-05T10:45:45;9.70;;;3.27;;
19897;SDS011;10111;50.814;4.572;2023-02-05T10:51:11;7.37;;;3.13;;
19897;SDS011;10111;50.814;4.572;2023-02-05T10:54:02;10.97;;;2.30;;
19897;SDS011;10111;50.814;4.572;2023-02-05T10:56:28;12.57;;;2.83;;
19897;SDS011;10111;50.814;4.572;2023-02-05T10:58:55;10.23;;;2.83;;
19897;SDS011;10111;50.814;4.572;2023-02-05T11:04:02;13.50;;;3.20;;
19897;SDS011;10111;50.814;4.572;2023-02-05T11:06:44;7.50;;;2.97;;
19897;SDS011;10111;50.814;4.572;2023-02-05T11:09:26;9.93;;;3.07;;
19897;SDS011;10111;50.814;4.572;2023-02-05T11:12:03;11.57;;;2.77;;
19897;SDS011;10111;50.814;4.572;2023-02-05T11:14:32;8.87;;;2.50;;
19897;SDS011;10111;50.814;4.572;2023-02-05T11:17:08;15.80;;;8.10;;
19897;SDS011;10111;50.814;4.572;2023-02-05T11:19:40;13.57;;;3.97;;
19897;SDS011;10111;50.814;4.572;2023-02-05T11:22:28;12.73;;;5.60;;
19897;SDS011;10111;50.814;4.572;2023-02-05T11:25:04;18.43;;;8.40;;
19897;SDS011;10111;50.814;4.572;2023-02-05T11:27:48;17.87;;;6.90;;
19897;SDS011;10111;50.814;4.572;2023-02-05T11:30:28;16.83;;;3.60;;
19897;SDS011;10111;50.814;4.572;2023-02-05T11:32:57;7.57;;;3.10;;
19897;SDS011;10111;50.814;4.572;2023-02-05T11:38:12;12.67;;;6.03;;
19897;SDS011;10111;50.814;4.572;2023-02-05T11:40:49;13.20;;;3.77;;
19897;SDS011;10111;50.814;4.572;2023-02-05T11:43:25;14.40;;;3.67;;
19897;SDS011;10111;50.814;4.572;2023-02-05T11:45:55;22.77;;;10.17;;
19897;SDS011;10111;50.814;4.572;2023-02-05T11:50:54;13.97;;;3.47;;
19897;SDS011;10111;50.814;4.572;2023-02-05T11:53:20;32.57;;;13.50;;
19897;SDS011;10111;50.814;4.572;2023-02-05T11:55:51;31.37;;;15.77;;
19897;SDS011;10111;50.814;4.572;2023-02-05T11:58:24;12.73;;;5.33;;
19897;SDS011;10111;50.814;4.572;2023-02-05T12:01:38;26.23;;;8.23;;
19897;SDS011;10111;50.814;4.572;2023-02-05T12:03:56;37.27;;;12.10;;
19897;SDS011;10111;50.814;4.572;2023-02-05T12:06:24;11.27;;;5.73;;
19897;SDS011;10111;50.814;4.572;2023-02-05T12:09:12;9.53;;;3.10;;
19897;SDS011;10111;50.814;4.572;2023-02-05T12:11:55;19.93;;;8.30;;
19897;SDS011;10111;50.814;4.572;2023-02-05T12:20:28;26.10;;;10.37;;
19897;SDS011;10111;50.814;4.572;2023-02-05T12:57:41;7.90;;;3.17;;
19897;SDS011;10111;50.814;4.572;2023-02-05T13:00:12;7.30;;;2.90;;
19897;SDS011;10111;50.814;4.572;2023-02-05T13:03:10;10.57;;;3.83;;
19897;SDS011;10111;50.814;4.572;2023-02-05T13:06:04;7.77;;;3.60;;
19897;SDS011;10111;50.814;4.572;2023-02-05T13:16:32;15.87;;;3.37;;
19897;SDS011;10111;50.814;4.572;2023-02-05T13:19:05;10.90;;;3.53;;
19897;SDS011;10111;50.814;4.572;2023-02-05T13:21:37;7.47;;;2.50;;
19897;SDS011;10111;50.814;4.572;2023-02-05T13:24:25;9.87;;;2.53;;
19897;SDS011;10111;50.814;4.572;2023-02-05T13:27:22;12.60;;;4.13;;
19897;SDS011;10111;50.814;4.572;2023-02-05T13:30:16;8.67;;;2.40;;
19897;SDS011;10111;50.814;4.572;2023-02-05T13:32:50;13.43;;;4.27;;
19897;SDS011;10111;50.814;4.572;2023-02-05T13:35:21;18.80;;;3.60;;
19897;SDS011;10111;50.814;4.572;2023-02-05T13:40:55;14.07;;;3.33;;
19897;SDS011;10111;50.814;4.572;2023-02-05T13:43:28;6.77;;;2.60;;
19897;SDS011;10111;50.814;4.572;2023-02-05T13:55:09;11.60;;;3.47;;
19897;SDS011;10111;50.814;4.572;2023-02-05T14:00:43;13.53;;;3.47;;
19897;SDS011;10111;50.814;4.572;2023-02-05T14:03:52;3.57;;;1.70;;
19897;SDS011;10111;50.814;4.572;2023-02-05T14:06:16;11.67;;;3.23;;
19897;SDS011;10111;50.814;4.572;2023-02-05T14:14:34;29.33;;;13.40;;
19897;SDS011;10111;50.814;4.572;2023-02-05T14:17:02;15.70;;;5.90;;
19897;SDS011;10111;50.814;4.572;2023-02-05T14:22:33;14.03;;;6.40;;
19897;SDS011;10111;50.814;4.572;2023-02-05T14:28:02;55.77;;;24.27;;
19897;SDS011;10111;50.814;4.572;2023-02-05T14:30:50;44.03;;;17.13;;
19897;SDS011;10111;50.814;4.572;2023-02-05T14:38:49;12.20;;;3.83;;
19897;SDS011;10111;50.814;4.572;2023-02-05T14:43:44;12.47;;;5.47;;
19897;SDS011;10111;50.814;4.572;2023-02-05T14:46:20;9.70;;;3.87;;
19897;SDS011;10111;50.814;4.572;2023-02-05T14:49:01;13.57;;;5.17;;
19897;SDS011;10111;50.814;4.572;2023-02-05T14:51:30;14.47;;;5.03;;
19897;SDS011;10111;50.814;4.572;2023-02-05T14:54:05;7.57;;;1.93;;
19897;SDS011;10111;50.814;4.572;2023-02-05T14:59:39;8.13;;;2.43;;
19897;SDS011;10111;50.814;4.572;2023-02-05T15:05:16;8.90;;;2.00;;
19897;SDS011;10111;50.814;4.572;2023-02-05T15:07:46;12.97;;;2.73;;
19897;SDS011;10111;50.814;4.572;2023-02-05T15:10:15;5.40;;;1.80;;
19897;SDS011;10111;50.814;4.572;2023-02-05T15:15:29;6.50;;;2.03;;
19897;SDS011;10111;50.814;4.572;2023-02-05T15:20:40;9.53;;;2.13;;
19897;SDS011;10111;50.814;4.572;2023-02-05T15:23:23;7.37;;;2.33;;
19897;SDS011;10111;50.814;4.572;2023-02-05T15:26:06;10.43;;;2.10;;
19897;SDS011;10111;50.814;4.572;2023-02-05T15:28:44;10.27;;;2.80;;
19897;SDS011;10111;50.814;4.572;2023-02-05T15:31:33;6.33;;;1.80;;
19897;SDS011;10111;50.814;4.572;2023-02-05T15:34:09;6.03;;;2.30;;
19897;SDS011;10111;50.814;4.572;2023-02-05T15:39:46;9.70;;;2.23;;
19897;SDS011;10111;50.814;4.572;2023-02-05T15:42:21;11.57;;;2.73;;
19897;SDS011;10111;50.814;4.572;2023-02-05T15:48:01;10.50;;;2.50;;
19897;SDS011;10111;50.814;4.572;2023-02-05T15:50:30;7.97;;;2.27;;
19897;SDS011;10111;50.814;4.572;2023-02-05T15:52:58;5.53;;;1.77;;
19897;SDS011;10111;50.814;4.572;2023-02-05T15:55:25;8.67;;;2.93;;
19897;SDS011;10111;50.814;4.572;2023-02-05T15:57:57;10.23;;;2.23;;
19897;SDS011;10111;50.814;4.572;2023-02-05T16:00:27;6.77;;;2.17;;
19897;SDS011;10111;50.814;4.572;2023-02-05T16:02:55;9.53;;;1.60;;
19897;SDS011;10111;50.814;4.572;2023-02-05T16:05:23;5.57;;;1.93;;
19897;SDS011;10111;50.814;4.572;2023-02-05T16:07:50;10.70;;;2.40;;
19897;SDS011;10111;50.814;4.572;2023-02-05T16:10:24;4.90;;;1.97;;
19897;SDS011;10111;50.814;4.572;2023-02-05T16:21:01;16.53;;;3.00;;
19897;SDS011;10111;50.814;4.572;2023-02-05T16:23:42;10.37;;;2.23;;
19897;SDS011;10111;50.814;4.572;2023-02-05T16:26:14;9.37;;;2.10;;
19897;SDS011;10111;50.814;4.572;2023-02-05T16:28:52;6.63;;;2.60;;
19897;SDS011;10111;50.814;4.572;2023-02-05T16:31:23;10.70;;;3.37;;
19897;SDS011;10111;50.814;4.572;2023-02-05T16:34:04;12.13;;;2.93;;
19897;SDS011;10111;50.814;4.572;2023-02-05T16:36:37;7.73;;;2.70;;
19897;SDS011;10111;50.814;4.572;2023-02-05T16:39:13;6.43;;;1.80;;
19897;SDS011;10111;50.814;4.572;2023-02-05T16:41:59;7.03;;;2.77;;
19897;SDS011;10111;50.814;4.572;2023-02-05T16:44:30;6.50;;;2.33;;
19897;SDS011;10111;50.814;4.572;2023-02-05T16:47:05;12.40;;;2.53;;
19897;SDS011;10111;50.814;4.572;2023-02-05T16:49:42;10.33;;;2.67;;
19897;SDS011;10111;50.814;4.572;2023-02-05T16:52:29;8.37;;;3.57;;
19897;SDS011;10111;50.814;4.572;2023-02-05T16:54:57;11.37;;;2.80;;
19897;SDS011;10111;50.814;4.572;2023-02-05T16:57:35;6.03;;;3.20;;
19897;SDS011;10111;50.814;4.572;2023-02-05T17:00:03;14.27;;;4.17;;
19897;SDS011;10111;50.814;4.572;2023-02-05T17:02:42;7.83;;;3.80;;
19897;SDS011;10111;50.814;4.572;2023-02-05T17:05:22;12.87;;;3.80;;
19897;SDS011;10111;50.814;4.572;2023-02-05T17:07:59;16.93;;;9.37;;
19897;SDS011;10111;50.814;4.572;2023-02-05T17:10:27;22.70;;;8.73;;
19897;SDS011;10111;50.814;4.572;2023-02-05T17:12:54;33.37;;;19.47;;
19897;SDS011;10111;50.814;4.572;2023-02-05T17:15:35;16.47;;;10.17;;
19897;SDS011;10111;50.814;4.572;2023-02-05T17:18:24;12.97;;;4.97;;
19897;SDS011;10111;50.814;4.572;2023-02-05T17:21:13;18.60;;;4.50;;
19897;SDS011;10111;50.814;4.572;2023-02-05T17:23:50;15.23;;;4.57;;
19897;SDS011;10111;50.814;4.572;2023-02-05T17:26:17;21.40;;;9.43;;
19897;SDS011;10111;50.814;4.572;2023-02-05T17:28:49;12.87;;;7.90;;
19897;SDS011;10111;50.814;4.572;2023-02-05T17:31:20;21.17;;;6.83;;
19897;SDS011;10111;50.814;4.572;2023-02-05T17:33:50;9.40;;;2.83;;
19897;SDS011;10111;50.814;4.572;2023-02-05T17:36:17;16.03;;;4.07;;
19897;SDS011;10111;50.814;4.572;2023-02-05T17:38:43;12.67;;;3.73;;
19897;SDS011;10111;50.814;4.572;2023-02-05T17:41:14;13.07;;;3.23;;
19897;SDS011;10111;50.814;4.572;2023-02-05T17:44:03;8.70;;;2.77;;
19897;SDS011;10111;50.814;4.572;2023-02-05T17:46:30;11.97;;;4.20;;
19897;SDS011;10111;50.814;4.572;2023-02-05T17:48:56;14.40;;;4.50;;
19897;SDS011;10111;50.814;4.572;2023-02-05T17:51:22;9.83;;;5.27;;
19897;SDS011;10111;50.814;4.572;2023-02-05T17:53:48;7.47;;;4.40;;
19897;SDS011;10111;50.814;4.572;2023-02-05T17:56:15;10.53;;;3.53;;
19897;SDS011;10111;50.814;4.572;2023-02-05T17:58:43;9.47;;;3.53;;